createdAt,value
2018-11-12T00:01:34.149Z,37.70
2018-11-12T00:04:02.725Z,38.23
2018-11-12T00:06:31.285Z,35.10
2018-11-12T00:08:59.869Z,32.97
2018-11-12T00:11:28.455Z,35.23
2018-11-12T00:13:56.962Z,40.93
2018-11-12T00:16:32.230Z,48.03
2018-11-12T00:19:00.913Z,41.00
2018-11-12T00:21:30.001Z,39.83
2018-11-12T00:23:58.765Z,40.10
2018-11-12T00:26:27.624Z,45.10
2018-11-12T00:28:56.206Z,38.53
2018-11-12T00:31:25.193Z,38.97
2018-11-12T00:33:53.749Z,37.50
2018-11-12T00:36:22.482Z,38.13
2018-11-12T00:38:51.213Z,33.87
2018-11-12T00:41:19.992Z,36.07
2018-11-12T00:43:48.725Z,41.20
2018-11-12T00:46:17.245Z,40.80
2018-11-12T00:48:45.840Z,35.07
2018-11-12T00:51:18.246Z,41.50
2018-11-12T00:53:46.822Z,34.40
2018-11-12T00:56:15.334Z,36.83
2018-11-12T00:58:43.873Z,34.03
2018-11-12T01:01:12.449Z,39.43
2018-11-12T01:03:40.969Z,29.07
2018-11-12T01:06:09.822Z,29.93
2018-11-12T01:08:38.408Z,29.00
2018-11-12T01:11:07.067Z,27.23
2018-11-12T01:13:35.613Z,30.60
2018-11-12T01:16:04.229Z,30.07
2018-11-12T01:18:32.757Z,29.00
2018-11-12T01:21:01.289Z,31.93
2018-11-12T01:23:30.847Z,31.40
2018-11-12T01:25:59.321Z,29.10
2018-11-12T01:28:27.898Z,30.77
2018-11-12T01:31:01.759Z,33.80
2018-11-12T01:33:30.308Z,32.20
2018-11-12T01:35:58.831Z,31.10
2018-11-12T01:38:27.402Z,31.03
2018-11-12T01:40:55.920Z,26.33
2018-11-12T01:43:24.484Z,23.87
2018-11-12T01:45:53.038Z,23.07
2018-11-12T01:48:21.590Z,24.23
2018-11-12T01:50:50.148Z,22.03
2018-11-12T01:53:18.669Z,23.27
2018-11-12T01:55:47.213Z,22.17
2018-11-12T01:58:15.969Z,20.10
2018-11-12T02:00:44.531Z,27.73
2018-11-12T02:03:13.065Z,24.13
2018-11-12T02:05:41.630Z,21.70
2018-11-12T02:08:10.177Z,21.60
2018-11-12T02:10:38.945Z,27.40
2018-11-12T02:13:07.498Z,29.83
2018-11-12T02:15:36.072Z,30.83
2018-11-12T02:18:04.817Z,30.63
2018-11-12T02:20:33.510Z,31.97
2018-11-12T02:23:02.035Z,28.67
2018-11-12T02:25:30.601Z,28.80
2018-11-12T02:27:59.112Z,30.83
2018-11-12T02:30:32.847Z,28.53
2018-11-12T02:33:01.392Z,30.43
2018-11-12T02:35:30.664Z,36.30
2018-11-12T02:37:59.189Z,41.50
2018-11-12T02:40:27.734Z,43.47
2018-11-12T02:42:56.489Z,46.33
2018-11-12T02:45:25.041Z,39.87
2018-11-12T02:47:53.602Z,45.77
2018-11-12T02:50:22.181Z,63.97
2018-11-12T02:52:50.836Z,63.83
2018-11-12T02:55:19.432Z,81.07
2018-11-12T02:57:48.527Z,80.30
2018-11-12T03:00:19.374Z,104.97
2018-11-12T03:02:54.690Z,108.97
2018-11-12T03:05:23.381Z,108.03
2018-11-12T03:07:51.999Z,73.73
2018-11-12T03:10:23.716Z,69.23
2018-11-12T03:12:55.352Z,95.47
2018-11-12T03:15:23.935Z,144.67
2018-11-12T03:17:52.805Z,76.33
2018-11-12T03:20:22.541Z,70.70
2018-11-12T03:22:51.104Z,81.40
2018-11-12T03:25:20.766Z,112.77
2018-11-12T03:27:49.846Z,99.27
2018-11-12T03:30:19.660Z,94.53
2018-11-12T03:32:48.874Z,59.90
2018-11-12T03:35:17.603Z,76.47
2018-11-12T03:37:47.298Z,79.53
2018-11-12T03:40:17.931Z,53.83
2018-11-12T03:42:46.957Z,64.13
2018-11-12T03:45:16.771Z,92.87
2018-11-12T03:47:45.427Z,66.43
2018-11-12T03:50:15.562Z,49.33
2018-11-12T03:52:44.434Z,46.67
2018-11-12T03:55:14.046Z,54.20
2018-11-12T03:57:42.738Z,81.07
2018-11-12T04:00:15.337Z,54.43
2018-11-12T04:02:44.051Z,66.07
2018-11-12T04:05:12.566Z,86.13
2018-11-12T04:07:41.604Z,102.30
2018-11-12T04:10:12.216Z,107.93
2018-11-12T04:12:40.769Z,71.60
2018-11-12T04:15:12.794Z,72.17
2018-11-12T04:17:41.396Z,71.77
2018-11-12T04:20:11.664Z,60.93
2018-11-12T04:22:41.099Z,72.20
2018-11-12T04:25:10.956Z,87.73
2018-11-12T04:27:39.483Z,59.47
2018-11-12T04:30:11.411Z,61.53
2018-11-12T04:32:40.193Z,65.17
2018-11-12T04:35:09.317Z,96.73
2018-11-12T04:37:37.912Z,57.43
2018-11-12T04:40:08.066Z,92.10
2018-11-12T04:42:36.675Z,95.17
2018-11-12T04:45:05.639Z,91.47
2018-11-12T04:47:34.183Z,62.33
2018-11-12T04:50:02.662Z,77.23
2018-11-12T04:52:31.213Z,81.13
2018-11-12T04:54:59.740Z,88.30
2018-11-12T04:57:28.247Z,85.50
2018-11-12T04:59:56.726Z,79.07
2018-11-12T05:02:27.766Z,83.03
2018-11-12T05:04:56.248Z,76.10
2018-11-12T05:07:25.624Z,88.77
2018-11-12T05:09:54.105Z,80.10
2018-11-12T05:12:22.636Z,71.27
2018-11-12T05:14:51.118Z,72.63
2018-11-12T05:17:19.601Z,76.73
2018-11-12T05:19:48.077Z,85.57
2018-11-12T05:22:16.594Z,95.93
2018-11-12T05:24:45.101Z,89.63
2018-11-12T05:27:13.597Z,82.80
2018-11-12T05:29:42.074Z,59.70
2018-11-12T05:32:10.614Z,76.97
2018-11-12T05:34:39.074Z,72.13
2018-11-12T05:37:07.703Z,93.20
2018-11-12T05:39:36.201Z,104.60
2018-11-12T05:42:05.035Z,118.63
2018-11-12T05:44:33.579Z,107.03
2018-11-12T05:47:02.082Z,97.23
2018-11-12T05:49:30.580Z,71.63
2018-11-12T05:51:59.082Z,98.50
2018-11-12T05:54:27.632Z,101.93
2018-11-12T05:56:56.126Z,69.47
2018-11-12T05:59:24.674Z,81.57
2018-11-12T06:01:53.184Z,94.67
2018-11-12T06:04:21.701Z,94.37
2018-11-12T06:06:50.194Z,78.27
2018-11-12T06:09:18.734Z,86.30
2018-11-12T06:11:47.213Z,80.53
2018-11-12T06:14:15.774Z,106.37
2018-11-12T06:16:44.275Z,85.53
2018-11-12T06:19:12.773Z,79.20
2018-11-12T06:21:41.245Z,94.73
2018-11-12T06:24:09.742Z,76.93
2018-11-12T06:26:38.218Z,83.37
2018-11-12T06:29:06.841Z,65.80
2018-11-12T06:31:35.362Z,64.27
2018-11-12T06:34:03.888Z,61.13
2018-11-12T06:36:32.442Z,63.83
2018-11-12T06:39:00.897Z,62.23
2018-11-12T06:41:29.379Z,62.40
2018-11-12T06:43:57.907Z,60.60
2018-11-12T06:46:26.427Z,68.60
2018-11-12T06:48:54.949Z,59.40
2018-11-12T06:51:23.443Z,62.03
2018-11-12T06:53:51.947Z,75.37
2018-11-12T06:56:20.422Z,68.43
2018-11-12T06:58:49.021Z,65.30
2018-11-12T07:01:18.533Z,70.47
2018-11-12T07:03:47.110Z,66.53
2018-11-12T07:06:15.728Z,61.70
2018-11-12T07:08:44.285Z,71.40
2018-11-12T07:11:12.792Z,75.87
2018-11-12T07:13:41.327Z,65.43
2018-11-12T07:16:10.174Z,70.00
2018-11-12T07:18:39.124Z,82.97
2018-11-12T07:21:07.804Z,71.40
2018-11-12T07:23:36.538Z,64.97
2018-11-12T07:26:06.050Z,74.20
2018-11-12T07:28:34.550Z,64.13
2018-11-12T07:31:03.175Z,64.83
2018-11-12T07:33:31.633Z,62.97
2018-11-12T07:36:00.198Z,82.77
2018-11-12T07:38:28.708Z,64.27
2018-11-12T07:40:57.260Z,62.20
2018-11-12T07:43:26.684Z,57.27
2018-11-12T07:45:55.552Z,60.73
2018-11-12T07:48:24.070Z,60.63
2018-11-12T07:50:52.634Z,54.13
2018-11-12T07:53:21.192Z,51.33
2018-11-12T07:55:53.962Z,54.20
2018-11-12T07:58:22.482Z,61.00
2018-11-12T08:00:51.254Z,69.30
2018-11-12T08:03:19.817Z,60.40
2018-11-12T08:05:48.705Z,53.47
2018-11-12T08:08:17.708Z,55.27
2018-11-12T08:10:46.241Z,55.13
2018-11-12T08:13:14.809Z,54.13
2018-11-12T08:15:43.441Z,53.57
2018-11-12T08:18:11.973Z,56.90
2018-11-12T08:20:40.526Z,52.87
2018-11-12T08:23:09.063Z,54.20
2018-11-12T08:25:37.644Z,51.73
2018-11-12T08:28:06.195Z,52.47
2018-11-12T08:30:34.827Z,56.83
2018-11-12T08:33:03.396Z,56.47
2018-11-12T08:35:32.006Z,61.37
2018-11-12T08:38:00.763Z,53.20
2018-11-12T08:40:30.606Z,76.17
2018-11-12T08:42:59.091Z,64.10
2018-11-12T08:45:27.648Z,69.17
2018-11-12T08:47:56.838Z,74.17
2018-11-12T08:50:26.545Z,66.87
2018-11-12T08:52:55.826Z,76.50
2018-11-12T08:55:25.683Z,55.30
2018-11-12T08:57:58.947Z,75.23
2018-11-12T09:00:27.462Z,74.17
2018-11-12T09:02:56.108Z,53.10
2018-11-12T09:05:25.830Z,49.40
2018-11-12T09:07:57.682Z,61.50
2018-11-12T09:10:28.977Z,54.10
2018-11-12T09:12:57.510Z,70.33
2018-11-12T09:15:26.271Z,49.43
2018-11-12T09:17:54.714Z,83.80
2018-11-12T09:20:24.610Z,61.53
2018-11-12T09:22:53.331Z,64.27
2018-11-12T09:25:23.061Z,51.47
2018-11-12T09:27:51.747Z,60.33
2018-11-12T09:30:21.493Z,51.00
2018-11-12T09:32:50.151Z,51.83
2018-11-12T09:35:23.436Z,60.73
2018-11-12T09:39:28.129Z,66.60
2018-11-12T09:41:57.055Z,62.37
2018-11-12T09:44:25.597Z,56.53
2018-11-12T09:46:54.147Z,66.43
2018-11-12T09:49:22.668Z,58.27
2018-11-12T09:51:51.217Z,63.70
2018-11-12T09:54:19.881Z,59.00
2018-11-12T09:56:48.335Z,54.50
2018-11-12T09:59:16.885Z,69.77
2018-11-12T10:01:46.086Z,60.63
2018-11-12T10:04:15.180Z,79.53
2018-11-12T10:06:44.285Z,97.10
2018-11-12T10:09:16.035Z,81.03
2018-11-12T10:11:43.552Z,68.77
2018-11-12T10:14:12.867Z,95.43
2018-11-12T10:16:42.467Z,80.33
2018-11-12T10:19:08.380Z,86.97
2018-11-12T10:21:36.873Z,94.50
2018-11-12T10:24:05.602Z,112.60
2018-11-12T10:26:34.145Z,79.20
2018-11-12T10:29:02.652Z,81.63
2018-11-12T10:31:31.175Z,129.03
2018-11-12T10:33:59.696Z,83.33
2018-11-12T10:36:28.233Z,77.53
2018-11-12T10:38:56.709Z,85.87
2018-11-12T10:41:25.301Z,86.03
2018-11-12T10:43:53.843Z,84.53
2018-11-12T10:46:22.322Z,77.20
2018-11-12T10:48:50.830Z,87.77
2018-11-12T10:51:19.472Z,76.67
2018-11-12T10:53:50.211Z,57.43
2018-11-12T10:56:16.492Z,62.27
2018-11-12T10:58:45.035Z,56.80
2018-11-12T11:01:20.239Z,68.50
2018-11-12T11:03:53.641Z,57.73
2018-11-12T11:06:22.174Z,54.13
2018-11-12T11:08:50.720Z,62.93
2018-11-12T11:11:19.209Z,63.70
2018-11-12T11:13:47.749Z,56.33
2018-11-12T11:16:16.227Z,62.23
2018-11-12T11:18:44.729Z,61.60
2018-11-12T11:21:13.284Z,64.93
2018-11-12T11:23:41.756Z,60.50
2018-11-12T11:26:10.233Z,53.30
2018-11-12T11:28:38.754Z,57.50
2018-11-12T11:31:07.241Z,54.83
2018-11-12T11:33:35.758Z,55.33
2018-11-12T11:36:04.258Z,52.17
2018-11-12T11:38:32.785Z,51.03
2018-11-12T11:41:01.253Z,56.67
2018-11-12T11:43:29.767Z,55.77
2018-11-12T11:45:58.228Z,59.53
2018-11-12T11:48:26.741Z,53.57
2018-11-12T11:50:55.694Z,49.60
2018-11-12T11:53:24.247Z,47.53
2018-11-12T11:55:52.789Z,51.40
2018-11-12T11:58:21.326Z,42.27
2018-11-12T12:00:49.812Z,47.17
2018-11-12T12:03:19.414Z,53.53
2018-11-12T12:05:47.918Z,49.13
2018-11-12T12:08:16.449Z,48.10
2018-11-12T12:10:44.933Z,46.50
2018-11-12T12:13:13.502Z,46.30
2018-11-12T12:15:42.043Z,46.63
2018-11-12T12:18:10.583Z,45.87
2018-11-12T12:20:39.069Z,46.70
2018-11-12T12:23:07.590Z,48.40
2018-11-12T12:25:36.243Z,48.67
2018-11-12T12:28:04.905Z,51.33
2018-11-12T12:30:33.422Z,50.33
2018-11-12T12:33:01.904Z,52.33
2018-11-12T12:35:30.465Z,47.63
2018-11-12T12:37:58.928Z,45.57
2018-11-12T12:40:27.456Z,45.07
2018-11-12T12:42:55.972Z,52.00
2018-11-12T12:45:26.616Z,49.70
2018-11-12T12:47:55.890Z,53.37
2018-11-12T12:50:24.457Z,50.43
2018-11-12T12:52:52.953Z,51.47
2018-11-12T12:55:21.576Z,49.20
2018-11-12T12:57:50.167Z,47.20
2018-11-12T13:00:21.386Z,43.13
2018-11-12T13:02:49.969Z,45.67
2018-11-12T13:05:18.729Z,40.47
2018-11-12T13:07:47.270Z,38.80
2018-11-12T13:10:17.089Z,36.07
2018-11-12T13:12:45.710Z,34.13
2018-11-12T13:15:15.449Z,34.23
2018-11-12T13:17:44.599Z,37.57
2018-11-12T13:20:15.738Z,36.20
2018-11-12T13:22:44.778Z,39.03
2018-11-12T13:25:13.450Z,37.57
2018-11-12T13:27:42.537Z,40.33
2018-11-12T13:30:13.513Z,40.70
2018-11-12T13:32:42.692Z,36.63
2018-11-12T13:35:12.729Z,45.73
2018-11-12T13:37:41.266Z,45.70
2018-11-12T13:40:13.891Z,47.87
2018-11-12T13:42:43.666Z,49.73
2018-11-12T13:45:12.182Z,50.93
2018-11-12T13:47:40.736Z,64.93
2018-11-12T13:50:12.179Z,65.07
2018-11-12T13:52:40.793Z,56.17
2018-11-12T13:55:11.006Z,62.97
2018-11-12T13:57:39.509Z,61.10
2018-11-12T14:00:10.353Z,57.37
2018-11-12T14:02:38.853Z,66.90
2018-11-12T14:05:09.137Z,55.80
2018-11-12T14:07:37.621Z,57.60
2018-11-12T14:10:07.577Z,53.83
2018-11-12T14:12:36.091Z,53.60
2018-11-12T14:15:04.704Z,58.37
2018-11-12T14:17:33.194Z,60.33
2018-11-12T14:20:01.745Z,66.43
2018-11-12T14:22:30.212Z,63.60
2018-11-12T14:24:58.768Z,62.07
2018-11-12T14:27:27.246Z,59.30
2018-11-12T14:29:55.789Z,56.23
2018-11-12T14:32:24.311Z,56.07
2018-11-12T14:34:52.795Z,58.43
2018-11-12T14:37:21.308Z,51.73
2018-11-12T14:39:50.309Z,50.20
2018-11-12T14:42:18.865Z,53.37
2018-11-12T14:44:47.367Z,49.33
2018-11-12T14:47:15.883Z,49.20
2018-11-12T14:49:44.398Z,45.80
2018-11-12T14:52:12.925Z,44.17
2018-11-12T14:54:41.422Z,48.03
2018-11-12T14:57:09.957Z,44.53
2018-11-12T14:59:38.482Z,243.73
2018-11-12T15:02:07.050Z,127.30
2018-11-12T15:04:35.550Z,259.17
2018-11-12T15:07:04.106Z,86.17
2018-11-12T15:09:32.601Z,99.97
2018-11-12T15:12:01.124Z,129.53
2018-11-12T15:14:29.631Z,66.47
2018-11-12T15:16:58.145Z,46.37
2018-11-12T15:19:31.560Z,51.10
2018-11-12T15:22:00.569Z,50.50
2018-11-12T15:24:29.110Z,47.93
2018-11-12T15:26:57.718Z,47.67
2018-11-12T15:29:26.293Z,49.73
2018-11-12T15:31:55.012Z,47.93
2018-11-12T15:34:23.542Z,49.77
2018-11-12T15:36:52.168Z,49.93
2018-11-12T15:39:20.610Z,51.47
2018-11-12T15:41:49.151Z,54.27
2018-11-12T15:44:17.649Z,54.77
2018-11-12T15:46:46.193Z,49.20
2018-11-12T15:49:15.369Z,45.37
2018-11-12T15:51:43.881Z,40.67
2018-11-12T15:54:12.355Z,40.93
2018-11-12T15:56:41.037Z,39.53
2018-11-12T15:59:09.578Z,45.00
2018-11-12T16:01:38.078Z,39.10
2018-11-12T16:04:06.611Z,37.97
2018-11-12T16:06:35.289Z,39.03
2018-11-12T16:09:05.302Z,40.73
2018-11-12T16:11:37.783Z,38.53
2018-11-12T16:14:07.399Z,42.93
2018-11-12T16:16:36.006Z,38.67
2018-11-12T16:19:06.408Z,38.33
2018-11-12T16:21:35.014Z,41.20
2018-11-12T16:24:03.596Z,42.03
2018-11-12T16:26:32.222Z,38.87
2018-11-12T16:29:00.773Z,39.50
2018-11-12T16:31:29.409Z,36.40
2018-11-12T16:33:57.898Z,36.43
2018-11-12T16:36:26.544Z,35.07
2018-11-12T16:38:55.953Z,35.07
2018-11-12T16:41:24.455Z,39.43
2018-11-12T16:43:53.023Z,40.57
2018-11-12T16:46:23.365Z,40.30
2018-11-12T16:48:51.905Z,35.67
2018-11-12T16:51:20.442Z,36.23
2018-11-12T16:53:48.935Z,37.30
2018-11-12T16:56:17.520Z,32.47
2018-11-12T16:58:47.103Z,34.80
2018-11-12T17:01:15.622Z,36.53
2018-11-12T17:03:44.079Z,40.80
2018-11-12T17:06:12.603Z,39.97
2018-11-12T17:08:41.101Z,39.23
2018-11-12T17:11:09.629Z,35.27
2018-11-12T17:13:38.127Z,37.73
2018-11-12T17:16:06.714Z,44.53
2018-11-12T17:18:35.185Z,41.03
2018-11-12T17:21:03.675Z,35.60
2018-11-12T17:23:32.165Z,39.90
2018-11-12T17:26:00.682Z,36.67
2018-11-12T17:28:29.155Z,41.93
2018-11-12T17:30:57.656Z,40.40
2018-11-12T17:33:26.189Z,41.50
2018-11-12T17:35:54.669Z,40.43
2018-11-12T17:38:23.188Z,41.93
2018-11-12T17:40:51.669Z,44.43
2018-11-12T17:43:20.193Z,42.67
2018-11-12T17:45:48.668Z,45.87
2018-11-12T17:48:17.170Z,42.73
2018-11-12T17:50:45.627Z,45.13
2018-11-12T17:53:14.222Z,43.63
2018-11-12T17:55:42.665Z,43.50
2018-11-12T17:58:11.190Z,43.00
2018-11-12T18:00:39.653Z,42.87
2018-11-12T18:03:08.137Z,40.10
2018-11-12T18:05:36.633Z,45.57
2018-11-12T18:08:05.288Z,43.17
2018-11-12T18:10:33.713Z,38.07
2018-11-12T18:13:02.231Z,41.93
2018-11-12T18:15:30.721Z,40.17
2018-11-12T18:17:59.226Z,36.43
2018-11-12T18:20:28.408Z,37.20
2018-11-12T18:22:57.543Z,40.90
2018-11-12T18:25:26.581Z,42.20
2018-11-12T18:27:55.707Z,40.83
2018-11-12T18:30:29.847Z,43.80
2018-11-12T18:32:58.817Z,43.53
2018-11-12T18:35:27.281Z,42.17
2018-11-12T18:37:56.139Z,40.13
2018-11-12T18:40:25.969Z,40.40
2018-11-12T18:42:54.463Z,39.93
2018-11-12T18:45:24.274Z,36.30
2018-11-12T18:47:52.908Z,39.77
2018-11-12T18:50:25.762Z,44.63
2018-11-12T18:52:54.313Z,43.73
2018-11-12T18:55:22.808Z,42.90
2018-11-12T18:57:51.734Z,43.90
2018-11-12T19:00:23.250Z,86.57
2018-11-12T19:02:52.078Z,114.33
2018-11-12T19:05:23.955Z,65.57
2018-11-12T19:07:53.374Z,48.87
2018-11-12T19:10:24.230Z,45.97
2018-11-12T19:12:53.059Z,84.70
2018-11-12T19:15:23.993Z,124.23
2018-11-12T19:18:00.375Z,102.10
2018-11-12T19:20:29.993Z,66.50
2018-11-12T19:22:58.525Z,135.80
2018-11-12T19:25:27.970Z,93.93
2018-11-12T19:27:56.576Z,93.00
2018-11-12T19:30:26.351Z,73.30
2018-11-12T19:32:54.922Z,112.50
2018-11-12T19:35:24.999Z,87.00
2018-11-12T19:37:53.517Z,77.53
2018-11-12T19:40:24.650Z,112.67
2018-11-12T19:42:54.317Z,141.00
2018-11-12T19:45:23.530Z,125.57
2018-11-12T19:47:52.440Z,89.77
2018-11-12T19:50:22.255Z,75.17
2018-11-12T19:52:51.980Z,86.30
2018-11-12T19:55:20.482Z,138.03
2018-11-12T19:57:49.101Z,109.70
2018-11-12T20:00:19.502Z,134.27
2018-11-12T20:02:49.347Z,109.43
2018-11-12T20:05:18.108Z,134.77
2018-11-12T20:07:46.914Z,133.07
2018-11-12T20:10:17.061Z,141.30
2018-11-12T20:12:45.595Z,96.13
2018-11-12T20:15:15.472Z,111.53
2018-11-12T20:17:44.925Z,120.83
2018-11-12T20:20:16.831Z,136.00
2018-11-12T20:22:46.104Z,161.40
2018-11-12T20:25:15.851Z,220.53
2018-11-12T20:27:44.686Z,175.50
2018-11-12T20:30:16.054Z,204.17
2018-11-12T20:32:44.848Z,182.13
2018-11-12T20:35:13.375Z,212.07
2018-11-12T20:37:41.918Z,235.27
2018-11-12T20:40:11.541Z,151.53
2018-11-12T20:42:40.241Z,143.40
2018-11-12T20:45:10.343Z,123.17
2018-11-12T20:47:39.371Z,156.60
2018-11-12T20:50:08.846Z,130.40
2018-11-12T20:52:37.436Z,133.93
2018-11-12T20:55:06.878Z,169.10
2018-11-12T20:57:35.796Z,168.20
2018-11-12T21:00:04.795Z,181.33
2018-11-12T21:02:33.377Z,168.73
2018-11-12T21:05:01.855Z,165.90
2018-11-12T21:07:30.421Z,163.60
2018-11-12T21:09:58.947Z,193.77
2018-11-12T21:12:27.450Z,159.70
2018-11-12T21:14:56.010Z,333.10
2018-11-12T21:17:24.605Z,219.50
2018-11-12T21:19:53.198Z,185.73
2018-11-12T21:22:21.746Z,337.87
2018-11-12T21:24:50.303Z,226.43
2018-11-12T21:27:18.797Z,277.80
2018-11-12T21:29:47.315Z,230.60
2018-11-12T21:32:15.829Z,213.20
2018-11-12T21:34:44.378Z,251.60
2018-11-12T21:37:13.005Z,241.30
2018-11-12T21:39:41.519Z,291.67
2018-11-12T21:42:10.043Z,191.57
2018-11-12T21:44:38.590Z,231.70
2018-11-12T21:47:07.110Z,296.07
2018-11-12T21:49:35.702Z,296.40
2018-11-12T21:52:04.218Z,284.53
2018-11-12T21:54:32.809Z,264.13
2018-11-12T21:57:01.321Z,215.83
2018-11-12T21:59:30.176Z,185.87
2018-11-12T22:01:58.666Z,263.57
2018-11-12T22:04:27.229Z,349.07
2018-11-12T22:06:55.755Z,266.73
2018-11-12T22:09:24.667Z,308.80
2018-11-12T22:11:53.192Z,222.13
2018-11-12T22:14:21.767Z,275.03
2018-11-12T22:16:50.319Z,318.87
2018-11-12T22:19:18.929Z,349.43
2018-11-12T22:21:47.383Z,402.70
2018-11-12T22:24:15.922Z,306.20
2018-11-12T22:26:44.502Z,226.33
2018-11-12T22:29:13.267Z,195.33
2018-11-12T22:31:41.789Z,478.23
2018-11-12T22:34:10.605Z,250.60
2018-11-12T22:36:39.162Z,332.47
2018-11-12T22:39:09.123Z,343.90
2018-11-12T22:41:37.625Z,260.10
2018-11-12T22:44:06.186Z,194.03
2018-11-12T22:46:35.154Z,283.80
2018-11-12T22:49:03.710Z,260.77
2018-11-12T22:51:32.654Z,311.70
2018-11-12T22:54:01.430Z,274.23
2018-11-12T22:56:29.818Z,235.23
2018-11-12T22:58:58.369Z,244.57
2018-11-12T23:01:27.256Z,236.80
2018-11-12T23:03:55.770Z,289.07
2018-11-12T23:06:24.333Z,267.47
2018-11-12T23:08:52.900Z,291.00
2018-11-12T23:11:21.413Z,277.67
2018-11-12T23:13:52.996Z,217.13
2018-11-12T23:16:21.499Z,323.50
2018-11-12T23:18:50.078Z,335.77
2018-11-12T23:21:18.958Z,449.90
2018-11-12T23:23:47.451Z,393.70
2018-11-12T23:26:16.022Z,320.03
2018-11-12T23:28:44.545Z,336.77
2018-11-12T23:31:13.066Z,221.10
2018-11-12T23:33:41.546Z,273.27
2018-11-12T23:36:10.111Z,367.37
2018-11-12T23:38:38.647Z,248.57
2018-11-12T23:41:07.234Z,255.93
2018-11-12T23:43:35.747Z,305.17
2018-11-12T23:46:04.300Z,335.97
2018-11-12T23:48:32.810Z,429.20
2018-11-12T23:51:01.384Z,261.10
2018-11-12T23:53:29.934Z,249.27
2018-11-12T23:55:58.469Z,321.63
2018-11-12T23:58:26.954Z,369.80
